createdAt,value
2023-04-30T00:00:10.961Z,11.45
2023-04-30T00:02:38.628Z,11.56
2023-04-30T00:05:06.350Z,11.48
2023-04-30T00:07:33.863Z,11.34
2023-04-30T00:10:01.198Z,11.50
2023-04-30T00:12:28.562Z,11.48
2023-04-30T00:14:56.501Z,11.24
2023-04-30T00:17:24.045Z,11.33
2023-04-30T00:19:52.140Z,11.30
2023-04-30T00:22:19.640Z,11.42
2023-04-30T00:24:46.924Z,11.42
2023-04-30T00:27:14.112Z,11.27
2023-04-30T00:29:41.534Z,11.17
2023-04-30T00:32:08.913Z,11.05
2023-04-30T00:34:36.347Z,11.36
2023-04-30T00:37:03.754Z,11.21
2023-04-30T00:39:30.968Z,11.16
2023-04-30T00:41:58.468Z,11.29
2023-04-30T00:44:26.067Z,11.35
2023-04-30T00:46:53.451Z,11.33
2023-04-30T00:49:21.132Z,11.32
2023-04-30T00:51:48.503Z,11.32
2023-04-30T00:54:16.705Z,11.39
2023-04-30T00:56:44.685Z,11.45
2023-04-30T00:59:13.590Z,11.61
2023-04-30T01:01:41.180Z,11.59
2023-04-30T01:04:08.622Z,11.43
2023-04-30T01:06:36.003Z,11.33
2023-04-30T01:09:03.750Z,11.37
2023-04-30T01:11:37.797Z,11.18
2023-04-30T01:14:30.478Z,11.34
2023-04-30T01:17:29.359Z,11.15
2023-04-30T01:19:57.837Z,11.20
2023-04-30T01:22:55.226Z,11.14
2023-04-30T01:26:01.501Z,11.08
2023-04-30T01:28:29.358Z,10.98
2023-04-30T01:30:58.718Z,11.27
2023-04-30T01:33:26.834Z,11.12
2023-04-30T01:36:26.298Z,11.14
2023-04-30T01:39:16.958Z,11.07
2023-04-30T01:42:23.010Z,11.16
2023-04-30T01:45:17.800Z,11.14
2023-04-30T01:47:53.951Z,11.13
2023-04-30T01:50:58.787Z,11.40
2023-04-30T01:53:40.274Z,11.41
2023-04-30T01:56:17.754Z,11.23
2023-04-30T01:58:47.235Z,11.35
2023-04-30T02:01:32.878Z,11.30
2023-04-30T02:04:00.721Z,11.42
2023-04-30T02:06:29.887Z,11.21
2023-04-30T02:09:03.191Z,10.99
2023-04-30T02:11:31.356Z,10.96
2023-04-30T02:13:58.673Z,10.95
2023-04-30T02:16:26.990Z,11.14
2023-04-30T02:18:54.569Z,10.87
2023-04-30T02:21:21.975Z,10.83
2023-04-30T02:23:49.758Z,10.91
2023-04-30T02:26:17.202Z,10.84
2023-04-30T02:28:44.623Z,10.76
2023-04-30T02:31:11.993Z,10.97
2023-04-30T02:33:39.500Z,10.86
2023-04-30T02:36:06.945Z,10.65
2023-04-30T02:38:34.352Z,10.25
2023-04-30T02:41:02.515Z,10.49
2023-04-30T02:43:30.013Z,10.27
2023-04-30T02:45:57.542Z,9.93
2023-04-30T02:48:24.924Z,10.07
2023-04-30T02:50:52.801Z,10.36
2023-04-30T02:53:20.284Z,9.99
2023-04-30T02:55:47.598Z,10.10
2023-04-30T02:58:15.000Z,10.17
2023-04-30T03:00:42.304Z,10.32
2023-04-30T03:03:09.821Z,10.42
2023-04-30T03:05:37.245Z,10.34
2023-04-30T03:08:04.751Z,10.23
2023-04-30T03:10:32.026Z,10.25
2023-04-30T03:12:59.266Z,10.24
2023-04-30T03:15:26.942Z,9.97
2023-04-30T03:17:54.303Z,9.84
2023-04-30T03:20:21.702Z,9.57
2023-04-30T03:22:49.038Z,9.60
2023-04-30T03:25:16.894Z,9.50
2023-04-30T03:27:44.052Z,9.52
2023-04-30T03:30:11.531Z,9.52
2023-04-30T03:32:39.154Z,9.34
2023-04-30T03:35:07.263Z,9.37
2023-04-30T03:37:34.553Z,9.26
2023-04-30T03:40:01.923Z,9.21
2023-04-30T03:42:29.145Z,9.26
2023-04-30T03:44:56.446Z,9.39
2023-04-30T03:47:23.635Z,9.52
2023-04-30T03:49:55.487Z,9.44
2023-04-30T03:52:24.222Z,9.17
2023-04-30T03:54:51.780Z,9.26
2023-04-30T03:57:20.940Z,9.01
2023-04-30T03:59:48.886Z,9.06
2023-04-30T04:02:16.613Z,9.07
2023-04-30T04:04:44.529Z,9.21
2023-04-30T04:07:12.149Z,9.22
2023-04-30T04:09:39.620Z,9.19
2023-04-30T04:12:07.823Z,9.06
2023-04-30T04:14:35.898Z,9.16
2023-04-30T04:17:05.913Z,9.17
2023-04-30T04:19:33.742Z,9.28
2023-04-30T04:22:03.067Z,9.36
2023-04-30T04:24:30.879Z,9.38
2023-04-30T04:26:59.630Z,9.39
2023-04-30T04:29:27.117Z,9.46
2023-04-30T04:31:55.742Z,9.54
2023-04-30T04:34:23.436Z,9.42
2023-04-30T04:36:51.064Z,9.57
2023-04-30T04:39:18.538Z,9.67
2023-04-30T04:41:46.448Z,9.70
2023-04-30T04:44:13.808Z,9.31
2023-04-30T04:46:44.531Z,9.14
2023-04-30T04:49:12.944Z,9.08
2023-04-30T04:51:40.563Z,9.37
2023-04-30T04:54:08.099Z,9.60
2023-04-30T04:56:35.463Z,9.62
2023-04-30T04:59:03.002Z,9.31
2023-04-30T05:01:31.058Z,9.63
2023-04-30T05:03:58.868Z,9.79
2023-04-30T05:06:27.127Z,9.77
2023-04-30T05:08:54.495Z,9.84
2023-04-30T05:11:23.067Z,9.94
2023-04-30T05:13:52.440Z,10.02
2023-04-30T05:16:19.909Z,9.96
2023-04-30T05:18:47.318Z,9.89
2023-04-30T05:21:15.525Z,10.03
2023-04-30T05:23:43.020Z,9.85
2023-04-30T05:26:10.668Z,9.98
2023-04-30T05:28:38.298Z,10.03
2023-04-30T05:31:05.960Z,10.17
2023-04-30T05:33:33.989Z,10.10
2023-04-30T05:36:01.609Z,10.15
2023-04-30T05:38:29.197Z,10.23
2023-04-30T05:40:56.734Z,10.41
2023-04-30T05:43:24.405Z,10.44
2023-04-30T05:45:51.722Z,10.59
2023-04-30T05:48:19.396Z,10.54
2023-04-30T05:50:46.931Z,10.46
2023-04-30T05:53:14.523Z,10.31
2023-04-30T05:55:42.438Z,10.37
2023-04-30T05:58:10.074Z,10.49
2023-04-30T06:00:37.995Z,10.57
2023-04-30T06:03:05.423Z,10.60
2023-04-30T06:05:33.311Z,10.88
2023-04-30T06:08:00.852Z,10.78
2023-04-30T06:10:28.774Z,10.88
2023-04-30T06:12:56.844Z,10.73
2023-04-30T06:15:24.246Z,11.00
2023-04-30T06:17:51.726Z,10.59
2023-04-30T06:20:19.354Z,10.58
2023-04-30T06:22:46.852Z,10.81
2023-04-30T06:25:14.194Z,10.69
2023-04-30T06:27:41.528Z,10.79
2023-04-30T06:30:09.773Z,10.83
2023-04-30T06:32:37.821Z,10.67
2023-04-30T06:35:06.142Z,11.01
2023-04-30T06:37:37.741Z,11.06
2023-04-30T06:40:07.435Z,10.97
2023-04-30T06:42:36.087Z,11.03
2023-04-30T06:45:06.776Z,11.28
2023-04-30T06:47:38.049Z,11.09
2023-04-30T06:50:06.197Z,11.30
2023-04-30T06:52:33.593Z,11.10
2023-04-30T06:55:01.257Z,11.45
2023-04-30T06:57:28.902Z,11.14
2023-04-30T06:59:56.925Z,11.12
2023-04-30T07:02:24.500Z,11.48
2023-04-30T07:04:51.923Z,11.76
2023-04-30T07:07:19.579Z,11.94
2023-04-30T07:09:47.674Z,12.05
2023-04-30T07:12:15.747Z,12.11
2023-04-30T07:14:44.675Z,12.17
2023-04-30T07:17:12.201Z,12.18
2023-04-30T07:19:39.598Z,12.52
2023-04-30T07:22:06.922Z,12.99
2023-04-30T07:24:35.003Z,13.57
2023-04-30T07:27:04.006Z,12.93
2023-04-30T07:29:31.784Z,13.32
2023-04-30T07:31:59.384Z,13.59
2023-04-30T07:34:28.022Z,13.01
2023-04-30T07:36:55.561Z,13.06
2023-04-30T07:39:22.839Z,13.12
2023-04-30T07:41:50.364Z,14.73
2023-04-30T07:44:17.994Z,15.70
2023-04-30T07:46:45.334Z,15.69
2023-04-30T07:49:12.927Z,15.28
2023-04-30T07:51:42.534Z,15.27
2023-04-30T07:54:10.404Z,15.22
2023-04-30T07:56:37.754Z,14.88
2023-04-30T07:59:05.467Z,13.72
2023-04-30T08:01:33.093Z,16.72
2023-04-30T08:04:00.884Z,18.98
2023-04-30T08:06:29.019Z,21.54
2023-04-30T08:08:56.641Z,19.44
2023-04-30T08:11:24.073Z,17.60
2023-04-30T08:13:51.607Z,17.78
2023-04-30T08:16:19.321Z,18.45
2023-04-30T08:18:46.819Z,18.27
2023-04-30T08:21:14.343Z,17.49
2023-04-30T08:23:41.901Z,16.99
2023-04-30T08:26:09.485Z,16.15
2023-04-30T08:28:37.179Z,15.78
2023-04-30T08:31:04.876Z,15.84
2023-04-30T08:33:32.416Z,14.83
2023-04-30T08:35:59.990Z,14.72
2023-04-30T08:38:28.951Z,14.46
2023-04-30T08:41:14.368Z,14.24
2023-04-30T08:43:44.349Z,14.09
2023-04-30T08:46:16.819Z,14.48
2023-04-30T08:48:45.140Z,14.47
2023-04-30T08:51:12.649Z,14.61
2023-04-30T08:53:42.381Z,14.49
2023-04-30T08:56:12.990Z,14.31
2023-04-30T08:58:41.511Z,14.28
2023-04-30T09:01:10.286Z,14.55
2023-04-30T09:03:38.115Z,14.83
2023-04-30T09:06:05.649Z,14.91
2023-04-30T09:08:45.336Z,14.71
2023-04-30T09:11:26.486Z,14.53
2023-04-30T09:13:57.353Z,14.50
2023-04-30T09:16:27.073Z,14.37
2023-04-30T09:18:54.725Z,14.36
2023-04-30T09:21:36.458Z,13.73
2023-04-30T09:24:05.772Z,13.42
2023-04-30T09:26:38.559Z,13.33
2023-04-30T09:29:10.369Z,13.37
2023-04-30T09:31:39.289Z,13.33
2023-04-30T09:34:07.052Z,13.36
2023-04-30T09:36:35.074Z,13.44
2023-04-30T09:39:15.635Z,13.39
2023-04-30T09:41:43.947Z,14.80
2023-04-30T09:44:31.758Z,15.20
2023-04-30T09:47:00.199Z,15.43
2023-04-30T09:49:27.929Z,15.33
2023-04-30T09:52:01.104Z,15.41
2023-04-30T09:54:32.807Z,15.27
2023-04-30T09:57:02.803Z,14.92
2023-04-30T09:59:36.811Z,14.67
2023-04-30T10:02:08.742Z,14.64
2023-04-30T10:04:43.093Z,14.20
2023-04-30T10:07:22.179Z,14.41
2023-04-30T10:10:18.411Z,15.21
2023-04-30T10:13:01.932Z,16.74
2023-04-30T10:15:40.265Z,19.88
2023-04-30T10:18:22.045Z,22.85
2023-04-30T10:20:54.005Z,21.07
2023-04-30T10:23:22.997Z,19.54
2023-04-30T10:25:51.641Z,18.88
2023-04-30T10:28:19.442Z,17.99
2023-04-30T10:30:47.711Z,18.02
2023-04-30T10:34:09.797Z,16.88
2023-04-30T10:36:56.584Z,17.27
2023-04-30T10:39:27.766Z,17.95
2023-04-30T10:42:05.628Z,21.18
2023-04-30T10:44:35.341Z,22.84
2023-04-30T10:47:04.493Z,23.23
2023-04-30T10:49:32.062Z,24.72
2023-04-30T10:52:01.895Z,25.56
2023-04-30T10:54:32.383Z,24.06
2023-04-30T10:57:14.780Z,24.39
2023-04-30T11:00:14.456Z,23.22
2023-04-30T11:02:48.855Z,21.72
2023-04-30T11:05:18.802Z,21.68
2023-04-30T11:07:57.064Z,21.42
2023-04-30T11:10:34.820Z,20.40
2023-04-30T11:13:07.670Z,19.54
2023-04-30T11:15:46.256Z,20.05
2023-04-30T11:18:15.000Z,18.94
2023-04-30T11:20:50.926Z,20.14
2023-04-30T11:23:35.664Z,20.08
2023-04-30T11:26:08.158Z,21.52
2023-04-30T11:28:37.780Z,21.33
2023-04-30T11:31:05.560Z,21.15
2023-04-30T11:33:34.259Z,20.44
2023-04-30T11:36:02.655Z,19.37
2023-04-30T11:38:36.125Z,18.74
2023-04-30T11:41:05.121Z,19.05
2023-04-30T11:43:34.732Z,19.43
2023-04-30T11:46:13.272Z,19.99
2023-04-30T11:48:43.936Z,19.63
2023-04-30T11:51:24.078Z,19.64
2023-04-30T11:53:53.412Z,18.93
2023-04-30T11:56:24.203Z,18.67
2023-04-30T11:58:54.965Z,18.52
2023-04-30T12:01:26.462Z,18.69
2023-04-30T12:03:57.724Z,18.40
2023-04-30T12:06:29.829Z,19.04
2023-04-30T12:09:04.817Z,19.23
2023-04-30T12:11:33.896Z,18.55
2023-04-30T12:14:07.780Z,18.70
2023-04-30T12:16:50.588Z,18.99
2023-04-30T12:19:25.432Z,18.97
2023-04-30T12:21:55.391Z,19.57
2023-04-30T12:24:23.784Z,18.97
2023-04-30T12:26:54.322Z,19.19
2023-04-30T12:29:23.075Z,18.22
2023-04-30T12:31:53.570Z,19.18
2023-04-30T12:34:20.920Z,19.30
2023-04-30T12:36:48.489Z,19.55
2023-04-30T12:39:16.545Z,19.68
2023-04-30T12:41:47.674Z,19.28
2023-04-30T12:44:25.024Z,20.18
2023-04-30T12:47:00.853Z,20.29
2023-04-30T12:49:34.771Z,19.86
2023-04-30T12:52:11.487Z,19.35
2023-04-30T12:54:40.422Z,18.87
2023-04-30T12:57:10.952Z,19.01
2023-04-30T12:59:53.915Z,19.52
2023-04-30T13:02:25.035Z,19.17
2023-04-30T13:04:53.772Z,19.07
2023-04-30T13:07:21.699Z,19.11
2023-04-30T13:09:49.128Z,19.39
2023-04-30T13:12:16.475Z,19.07
2023-04-30T13:14:43.921Z,18.69
2023-04-30T13:17:13.924Z,19.15
2023-04-30T13:19:42.159Z,19.32
2023-04-30T13:22:09.510Z,18.53
2023-04-30T13:24:37.474Z,18.67
2023-04-30T13:27:04.987Z,18.96
2023-04-30T13:29:32.881Z,19.08
2023-04-30T13:32:00.170Z,18.78
2023-04-30T13:34:27.632Z,18.70
2023-04-30T13:36:55.271Z,18.63
2023-04-30T13:39:22.503Z,19.03
2023-04-30T13:41:49.861Z,19.43
2023-04-30T13:44:17.323Z,19.65
2023-04-30T13:46:44.652Z,19.42
2023-04-30T13:49:12.027Z,19.28
2023-04-30T13:51:39.321Z,19.64
2023-04-30T13:54:06.517Z,19.30
2023-04-30T13:56:33.863Z,19.00
2023-04-30T13:59:01.140Z,18.84
2023-04-30T14:01:28.602Z,18.79
2023-04-30T14:03:56.131Z,18.03
2023-04-30T14:06:23.361Z,18.56
2023-04-30T14:08:50.852Z,18.73
2023-04-30T14:11:18.103Z,19.25
2023-04-30T14:13:45.362Z,19.08
2023-04-30T14:16:12.711Z,18.93
2023-04-30T14:18:39.970Z,18.95
2023-04-30T14:21:07.807Z,19.20
2023-04-30T14:23:35.241Z,18.56
2023-04-30T14:26:02.643Z,18.90
2023-04-30T14:28:30.269Z,19.08
2023-04-30T14:30:57.815Z,19.13
2023-04-30T14:33:25.103Z,18.85
2023-04-30T14:35:52.825Z,17.97
2023-04-30T14:38:20.853Z,17.74
2023-04-30T14:40:48.204Z,17.99
2023-04-30T14:43:15.663Z,18.13
2023-04-30T14:45:44.774Z,18.29
2023-04-30T14:48:12.770Z,17.99
2023-04-30T14:50:40.100Z,17.88
2023-04-30T14:53:07.616Z,17.94
2023-04-30T14:55:35.237Z,17.68
2023-04-30T14:58:02.809Z,17.82
2023-04-30T15:00:32.040Z,17.70
2023-04-30T15:03:00.280Z,17.88
2023-04-30T15:05:28.814Z,17.53
2023-04-30T15:07:56.161Z,17.47
2023-04-30T15:10:23.386Z,17.28
2023-04-30T15:12:50.575Z,17.13
2023-04-30T15:15:18.899Z,17.15
2023-04-30T15:17:46.425Z,17.17
2023-04-30T15:20:13.943Z,17.19
2023-04-30T15:22:42.289Z,16.95
2023-04-30T15:25:10.069Z,16.94
2023-04-30T15:27:37.310Z,16.94
2023-04-30T15:30:06.458Z,16.98
2023-04-30T15:32:33.746Z,16.87
2023-04-30T15:35:01.091Z,16.74
2023-04-30T15:37:28.369Z,16.66
2023-04-30T15:39:56.092Z,16.42
2023-04-30T15:42:23.599Z,16.19
2023-04-30T15:44:52.317Z,16.42
2023-04-30T15:47:20.499Z,16.12
2023-04-30T15:49:51.844Z,16.07
2023-04-30T15:52:19.055Z,16.27
2023-04-30T15:54:46.251Z,16.04
2023-04-30T15:57:13.700Z,16.22
2023-04-30T15:59:41.047Z,16.17
2023-04-30T16:02:08.348Z,16.10
2023-04-30T16:04:35.656Z,15.84
2023-04-30T16:07:03.430Z,15.89
2023-04-30T16:09:32.166Z,15.85
2023-04-30T16:11:59.731Z,15.69
2023-04-30T16:14:27.038Z,15.48
2023-04-30T16:16:54.429Z,15.41
2023-04-30T16:19:21.871Z,15.32
2023-04-30T16:21:49.240Z,15.25
2023-04-30T16:24:16.434Z,15.26
2023-04-30T16:26:43.859Z,15.42
2023-04-30T16:29:11.163Z,15.37
2023-04-30T16:31:38.599Z,15.15
2023-04-30T16:34:06.022Z,15.15
2023-04-30T16:36:33.455Z,14.96
2023-04-30T16:39:00.664Z,14.95
2023-04-30T16:41:27.978Z,14.98
2023-04-30T16:43:55.170Z,14.98
2023-04-30T16:46:22.471Z,14.93
2023-04-30T16:48:49.814Z,14.83
2023-04-30T16:51:17.244Z,14.67
2023-04-30T16:53:44.525Z,14.55
2023-04-30T16:56:11.737Z,14.53
2023-04-30T16:58:39.406Z,14.58
2023-04-30T17:01:06.952Z,14.63
2023-04-30T17:03:37.412Z,14.39
2023-04-30T17:06:05.969Z,14.20
2023-04-30T17:08:33.179Z,14.15
2023-04-30T17:11:00.944Z,13.92
2023-04-30T17:13:30.803Z,13.98
2023-04-30T17:16:01.984Z,14.08
2023-04-30T17:18:29.786Z,14.04
2023-04-30T17:20:57.472Z,13.91
2023-04-30T17:23:25.691Z,13.67
2023-04-30T17:25:53.046Z,13.41
2023-04-30T17:28:20.363Z,13.15
2023-04-30T17:30:47.697Z,13.26
2023-04-30T17:33:14.991Z,13.23
2023-04-30T17:35:42.571Z,13.09
2023-04-30T17:38:10.061Z,13.12
2023-04-30T17:40:37.398Z,13.09
2023-04-30T17:43:05.075Z,12.86
2023-04-30T17:45:32.356Z,12.75
2023-04-30T17:47:59.762Z,12.71
2023-04-30T17:50:27.187Z,12.67
2023-04-30T17:52:54.459Z,12.61
2023-04-30T17:55:22.103Z,12.62
2023-04-30T17:57:51.736Z,12.41
2023-04-30T18:00:19.047Z,12.43
2023-04-30T18:02:46.518Z,12.28
2023-04-30T18:05:14.807Z,12.20
2023-04-30T18:07:42.429Z,12.16
2023-04-30T18:10:10.130Z,12.06
2023-04-30T18:12:38.387Z,12.11
2023-04-30T18:15:08.574Z,12.05
2023-04-30T18:17:37.494Z,11.90
2023-04-30T18:20:05.942Z,11.92
2023-04-30T18:22:33.259Z,11.77
2023-04-30T18:25:00.599Z,11.74
2023-04-30T18:27:27.852Z,11.58
2023-04-30T18:29:57.300Z,11.55
2023-04-30T18:32:24.769Z,11.46
2023-04-30T18:34:52.265Z,11.35
2023-04-30T18:37:20.890Z,11.38
2023-04-30T18:39:48.283Z,11.44
2023-04-30T18:42:15.531Z,11.40
2023-04-30T18:44:42.883Z,11.22
2023-04-30T18:47:11.495Z,11.12
2023-04-30T18:49:38.867Z,11.03
2023-04-30T18:52:06.177Z,10.98
2023-04-30T18:54:34.635Z,11.09
2023-04-30T18:57:01.872Z,11.21
2023-04-30T18:59:29.600Z,11.11
2023-04-30T19:01:56.992Z,10.94
2023-04-30T19:04:24.213Z,11.00
2023-04-30T19:06:52.674Z,10.95
2023-04-30T19:09:19.961Z,10.84
2023-04-30T19:11:47.964Z,10.81
2023-04-30T19:14:15.358Z,10.76
2023-04-30T19:16:42.906Z,10.72
2023-04-30T19:19:10.423Z,10.87
2023-04-30T19:21:37.826Z,10.75
2023-04-30T19:24:05.611Z,10.64
2023-04-30T19:26:34.300Z,10.61
2023-04-30T19:29:03.483Z,10.61
2023-04-30T19:31:30.946Z,10.57
2023-04-30T19:34:01.187Z,10.56
2023-04-30T19:36:28.653Z,10.49
2023-04-30T19:38:56.738Z,10.41
2023-04-30T19:41:24.057Z,10.13
2023-04-30T19:43:53.534Z,9.99
2023-04-30T19:46:21.317Z,9.95
2023-04-30T19:48:49.217Z,9.93
2023-04-30T19:51:16.703Z,9.88
2023-04-30T19:53:44.217Z,9.84
2023-04-30T19:56:11.633Z,9.79
2023-04-30T19:58:39.019Z,9.80
2023-04-30T20:01:06.344Z,9.74
2023-04-30T20:03:35.791Z,9.66
2023-04-30T20:06:04.666Z,9.62
2023-04-30T20:08:32.208Z,9.67
2023-04-30T20:11:00.766Z,9.68
2023-04-30T20:13:28.790Z,9.69
2023-04-30T20:15:56.435Z,9.66
2023-04-30T20:18:23.855Z,9.63
2023-04-30T20:20:52.443Z,9.52
2023-04-30T20:23:20.508Z,9.55
2023-04-30T20:25:50.089Z,9.50
2023-04-30T20:28:18.724Z,9.42
2023-04-30T20:30:47.463Z,9.37
2023-04-30T20:33:15.428Z,9.23
2023-04-30T20:35:46.467Z,9.15
2023-04-30T20:38:16.777Z,9.11
2023-04-30T20:40:48.539Z,9.01
2023-04-30T20:43:16.860Z,8.94
2023-04-30T20:45:47.671Z,8.80
2023-04-30T20:48:15.420Z,8.72
2023-04-30T20:50:42.802Z,8.59
2023-04-30T20:53:11.338Z,8.53
2023-04-30T20:55:38.886Z,8.52
2023-04-30T20:58:07.903Z,8.49
2023-04-30T21:00:35.416Z,8.47
2023-04-30T21:03:02.807Z,8.43
2023-04-30T21:05:30.354Z,8.35
2023-04-30T21:08:01.374Z,8.26
2023-04-30T21:10:36.364Z,8.11
2023-04-30T21:13:08.988Z,8.00
2023-04-30T21:15:36.939Z,7.91
2023-04-30T21:18:04.353Z,7.82
2023-04-30T21:20:32.193Z,7.81
2023-04-30T21:22:59.668Z,7.82
2023-04-30T21:25:27.342Z,7.81
2023-04-30T21:27:55.264Z,7.71
2023-04-30T21:30:25.643Z,7.74
2023-04-30T21:32:58.377Z,7.77
2023-04-30T21:35:27.861Z,7.83
2023-04-30T21:37:55.536Z,7.86
2023-04-30T21:40:22.850Z,7.77
2023-04-30T21:42:50.481Z,7.74
2023-04-30T21:45:18.233Z,7.69
2023-04-30T21:47:48.551Z,7.69
2023-04-30T21:50:16.419Z,7.66
2023-04-30T21:52:43.961Z,7.60
2023-04-30T21:55:12.312Z,7.48
2023-04-30T21:57:39.738Z,7.46
2023-04-30T22:00:14.279Z,7.45
2023-04-30T22:02:49.080Z,7.56
2023-04-30T22:05:17.806Z,7.67
2023-04-30T22:07:45.116Z,7.75
2023-04-30T22:10:14.831Z,7.80
2023-04-30T22:12:44.634Z,7.80
2023-04-30T22:15:14.507Z,7.79
2023-04-30T22:17:42.498Z,7.74
2023-04-30T22:20:10.339Z,7.62
2023-04-30T22:22:37.729Z,7.62
2023-04-30T22:25:05.596Z,7.62
2023-04-30T22:27:32.960Z,7.57
2023-04-30T22:30:00.285Z,7.46
2023-04-30T22:32:27.649Z,7.37
2023-04-30T22:34:55.195Z,7.33
2023-04-30T22:37:22.477Z,7.38
2023-04-30T22:39:49.701Z,7.45
2023-04-30T22:42:17.104Z,7.49
2023-04-30T22:44:45.923Z,7.54
2023-04-30T22:47:13.667Z,7.48
2023-04-30T22:49:41.830Z,7.45
2023-04-30T22:52:09.169Z,7.41
2023-04-30T22:54:36.601Z,7.41
2023-04-30T22:57:03.920Z,7.41
2023-04-30T22:59:31.267Z,7.28
2023-04-30T23:01:58.632Z,7.10
2023-04-30T23:04:27.448Z,6.89
2023-04-30T23:06:55.078Z,6.80
2023-04-30T23:09:22.462Z,6.72
2023-04-30T23:11:49.688Z,6.69
2023-04-30T23:14:17.369Z,6.80
2023-04-30T23:16:44.654Z,6.81
2023-04-30T23:19:11.992Z,6.74
2023-04-30T23:21:39.224Z,6.70
2023-04-30T23:24:06.545Z,6.61
2023-04-30T23:26:33.804Z,6.45
2023-04-30T23:29:01.708Z,6.35
2023-04-30T23:31:29.126Z,6.31
2023-04-30T23:33:56.426Z,6.27
2023-04-30T23:36:23.879Z,6.24
2023-04-30T23:38:51.376Z,6.19
2023-04-30T23:41:18.574Z,6.14
2023-04-30T23:43:45.960Z,6.17
2023-04-30T23:46:13.308Z,6.15
2023-04-30T23:48:40.949Z,6.14
2023-04-30T23:51:09.040Z,6.13
2023-04-30T23:53:36.298Z,6.09
2023-04-30T23:56:03.730Z,6.01
2023-04-30T23:58:30.943Z,5.94
